createdAt,value
2022-08-31T00:00:09.599Z,17.04
2022-08-31T00:02:55.083Z,17.07
2022-08-31T00:05:23.247Z,17.00
2022-08-31T00:07:51.778Z,17.09
2022-08-31T00:10:32.354Z,17.06
2022-08-31T00:13:07.102Z,17.08
2022-08-31T00:15:35.865Z,17.03
2022-08-31T00:18:04.150Z,16.97
2022-08-31T00:20:33.433Z,16.94
2022-08-31T00:23:02.578Z,16.87
2022-08-31T00:25:30.440Z,16.93
2022-08-31T00:27:58.206Z,16.93
2022-08-31T00:30:27.581Z,16.93
2022-08-31T00:32:58.251Z,17.00
2022-08-31T00:35:27.393Z,16.96
2022-08-31T00:37:55.166Z,16.93
2022-08-31T00:40:23.287Z,16.90
2022-08-31T00:42:51.361Z,16.82
2022-08-31T00:45:19.334Z,16.78
2022-08-31T00:47:48.608Z,16.72
2022-08-31T00:50:19.414Z,16.69
2022-08-31T00:52:51.128Z,16.78
2022-08-31T00:55:22.745Z,16.81
2022-08-31T00:57:54.141Z,16.70
2022-08-31T01:00:25.509Z,16.65
2022-08-31T01:02:56.025Z,16.67
2022-08-31T01:05:23.880Z,16.67
2022-08-31T01:07:52.682Z,16.68
2022-08-31T01:10:23.131Z,16.66
2022-08-31T01:12:54.107Z,16.60
2022-08-31T01:15:22.914Z,16.53
2022-08-31T01:17:55.503Z,16.65
2022-08-31T01:20:30.208Z,16.51
2022-08-31T01:23:12.101Z,16.51
2022-08-31T01:25:42.855Z,16.54
2022-08-31T01:28:12.202Z,16.54
2022-08-31T01:30:42.672Z,16.52
2022-08-31T01:33:11.479Z,16.46
2022-08-31T01:35:41.430Z,16.48
2022-08-31T01:38:13.280Z,16.40
2022-08-31T01:40:47.988Z,16.42
2022-08-31T01:43:16.845Z,16.38
2022-08-31T01:45:44.978Z,16.39
2022-08-31T01:48:13.198Z,16.40
2022-08-31T01:50:41.493Z,16.41
2022-08-31T01:53:11.175Z,16.40
2022-08-31T01:55:39.009Z,16.40
2022-08-31T01:58:07.410Z,16.47
2022-08-31T02:00:36.087Z,16.44
2022-08-31T02:03:05.195Z,16.44
2022-08-31T02:05:33.006Z,16.32
2022-08-31T02:08:00.774Z,16.39
2022-08-31T02:10:30.000Z,16.36
2022-08-31T02:12:58.067Z,16.37
2022-08-31T02:15:25.964Z,16.38
2022-08-31T02:17:53.668Z,16.34
2022-08-31T02:20:21.505Z,16.42
2022-08-31T02:22:50.249Z,16.35
2022-08-31T02:25:18.085Z,16.31
2022-08-31T02:27:47.257Z,16.40
2022-08-31T02:30:19.118Z,16.40
2022-08-31T02:32:46.955Z,16.39
2022-08-31T02:35:15.065Z,16.39
2022-08-31T02:37:42.883Z,16.34
2022-08-31T02:40:12.196Z,16.28
2022-08-31T02:42:52.501Z,16.25
2022-08-31T02:45:23.433Z,16.25
2022-08-31T02:47:51.436Z,16.16
2022-08-31T02:50:19.614Z,16.24
2022-08-31T02:52:48.034Z,16.16
2022-08-31T02:55:15.866Z,16.28
2022-08-31T02:57:43.651Z,16.28
2022-08-31T03:00:13.096Z,16.27
2022-08-31T03:02:42.431Z,16.23
2022-08-31T03:05:11.877Z,16.22
2022-08-31T03:07:40.413Z,16.23
2022-08-31T03:10:10.541Z,16.13
2022-08-31T03:12:38.670Z,16.05
2022-08-31T03:15:08.639Z,16.11
2022-08-31T03:17:37.092Z,16.13
2022-08-31T03:20:07.627Z,16.25
2022-08-31T03:22:35.906Z,16.11
2022-08-31T03:25:05.308Z,16.20
2022-08-31T03:27:33.155Z,16.19
2022-08-31T03:30:01.546Z,16.23
2022-08-31T03:32:30.863Z,16.23
2022-08-31T03:35:00.675Z,16.24
2022-08-31T03:37:29.893Z,16.20
2022-08-31T03:39:57.705Z,16.15
2022-08-31T03:42:26.457Z,16.16
2022-08-31T03:44:55.488Z,16.07
2022-08-31T03:47:23.313Z,16.07
2022-08-31T03:49:51.346Z,16.01
2022-08-31T03:52:20.748Z,15.99
2022-08-31T03:54:49.868Z,16.04
2022-08-31T03:57:17.791Z,16.04
2022-08-31T03:59:45.561Z,16.05
2022-08-31T04:02:13.392Z,16.05
2022-08-31T04:04:41.319Z,15.95
2022-08-31T04:07:09.026Z,15.99
2022-08-31T04:09:36.914Z,15.91
2022-08-31T04:12:06.300Z,15.84
2022-08-31T04:14:34.211Z,15.81
2022-08-31T04:17:02.082Z,15.73
2022-08-31T04:19:31.540Z,15.73
2022-08-31T04:21:59.586Z,15.68
2022-08-31T04:24:27.395Z,15.63
2022-08-31T04:26:55.272Z,15.61
2022-08-31T04:29:24.707Z,15.56
2022-08-31T04:31:52.603Z,15.36
2022-08-31T04:34:20.662Z,15.36
2022-08-31T04:36:48.474Z,15.26
2022-08-31T04:39:17.027Z,15.32
2022-08-31T04:41:44.876Z,15.29
2022-08-31T04:44:16.462Z,15.19
2022-08-31T04:46:48.750Z,15.23
2022-08-31T04:49:16.558Z,15.08
2022-08-31T04:51:46.251Z,15.11
2022-08-31T04:54:14.936Z,15.12
2022-08-31T04:56:45.849Z,14.98
2022-08-31T04:59:16.229Z,15.02
2022-08-31T05:01:45.985Z,15.07
2022-08-31T05:04:16.979Z,14.99
2022-08-31T05:06:47.188Z,14.86
2022-08-31T05:09:18.247Z,14.90
2022-08-31T05:11:46.675Z,14.83
2022-08-31T05:14:14.558Z,14.83
2022-08-31T05:16:43.239Z,14.78
2022-08-31T05:19:11.487Z,14.94
2022-08-31T05:21:42.877Z,14.87
2022-08-31T05:24:13.279Z,14.86
2022-08-31T05:26:44.706Z,14.90
2022-08-31T05:29:14.402Z,14.77
2022-08-31T05:31:43.226Z,14.93
2022-08-31T05:34:12.558Z,14.94
2022-08-31T05:36:42.719Z,14.94
2022-08-31T05:39:11.882Z,14.95
2022-08-31T05:41:40.700Z,14.94
2022-08-31T05:44:10.015Z,14.95
2022-08-31T05:46:38.291Z,14.95
2022-08-31T05:49:08.350Z,15.05
2022-08-31T05:51:39.533Z,15.00
2022-08-31T05:54:10.712Z,15.02
2022-08-31T05:56:41.161Z,15.05
2022-08-31T05:59:11.009Z,15.01
2022-08-31T06:01:41.077Z,15.10
2022-08-31T06:04:09.778Z,15.19
2022-08-31T06:06:38.235Z,15.26
2022-08-31T06:09:08.649Z,15.28
2022-08-31T06:11:38.904Z,15.34
2022-08-31T06:14:06.774Z,15.35
2022-08-31T06:16:36.088Z,15.38
2022-08-31T06:19:07.098Z,15.45
2022-08-31T06:21:38.539Z,15.57
2022-08-31T06:24:10.933Z,15.73
2022-08-31T06:26:40.768Z,15.89
2022-08-31T06:29:09.461Z,16.07
2022-08-31T06:31:39.767Z,16.20
2022-08-31T06:34:08.318Z,16.41
2022-08-31T06:36:36.657Z,16.46
2022-08-31T06:39:04.605Z,16.63
2022-08-31T06:41:36.933Z,16.62
2022-08-31T06:44:07.853Z,17.03
2022-08-31T06:46:36.974Z,17.17
2022-08-31T06:49:05.769Z,17.18
2022-08-31T06:51:38.080Z,16.87
2022-08-31T06:54:27.992Z,16.77
2022-08-31T06:56:58.210Z,16.54
2022-08-31T06:59:28.787Z,16.42
2022-08-31T07:01:57.727Z,16.29
2022-08-31T07:04:26.285Z,16.49
2022-08-31T07:06:54.614Z,16.44
2022-08-31T07:09:23.058Z,16.50
2022-08-31T07:11:52.519Z,16.60
2022-08-31T07:14:24.103Z,16.56
2022-08-31T07:16:53.251Z,16.45
2022-08-31T07:19:22.033Z,16.56
2022-08-31T07:21:51.570Z,16.65
2022-08-31T07:24:24.341Z,16.76
2022-08-31T07:26:58.170Z,16.85
2022-08-31T07:29:30.470Z,16.94
2022-08-31T07:31:59.346Z,17.03
2022-08-31T07:34:29.271Z,17.08
2022-08-31T07:37:15.888Z,17.28
2022-08-31T07:40:06.376Z,17.34
2022-08-31T07:42:38.668Z,17.35
2022-08-31T07:45:12.762Z,17.52
2022-08-31T07:47:45.368Z,17.61
2022-08-31T07:50:15.012Z,17.65
2022-08-31T07:52:48.374Z,17.60
2022-08-31T07:55:18.055Z,17.71
2022-08-31T07:57:45.987Z,17.74
2022-08-31T08:00:20.922Z,17.49
2022-08-31T08:02:53.339Z,17.51
2022-08-31T08:05:27.227Z,17.53
2022-08-31T08:07:59.172Z,17.46
2022-08-31T08:10:27.016Z,17.57
2022-08-31T08:13:00.758Z,17.76
2022-08-31T08:15:36.199Z,17.87
2022-08-31T08:18:04.938Z,17.97
2022-08-31T08:20:35.275Z,18.09
2022-08-31T08:23:09.018Z,18.42
2022-08-31T08:25:38.719Z,18.61
2022-08-31T08:28:23.122Z,18.47
2022-08-31T08:31:01.489Z,18.60
2022-08-31T08:33:30.251Z,18.84
2022-08-31T08:35:59.560Z,19.06
2022-08-31T08:38:30.989Z,19.35
2022-08-31T08:41:00.667Z,19.69
2022-08-31T08:43:33.579Z,20.14
2022-08-31T08:46:20.105Z,20.38
2022-08-31T08:48:54.645Z,20.70
2022-08-31T08:51:26.753Z,20.71
2022-08-31T08:54:02.830Z,20.84
2022-08-31T08:56:33.923Z,21.05
2022-08-31T08:59:07.357Z,21.10
2022-08-31T09:01:40.397Z,20.94
2022-08-31T09:04:17.213Z,20.90
2022-08-31T09:06:54.715Z,21.08
2022-08-31T09:09:37.607Z,21.46
2022-08-31T09:12:24.079Z,21.59
2022-08-31T09:15:36.240Z,21.74
2022-08-31T09:18:14.702Z,22.08
2022-08-31T09:20:43.508Z,21.98
2022-08-31T09:23:14.387Z,22.10
2022-08-31T09:25:49.799Z,22.13
2022-08-31T09:28:18.878Z,22.04
2022-08-31T09:30:52.410Z,22.02
2022-08-31T09:33:24.462Z,21.70
2022-08-31T09:35:56.677Z,21.76
2022-08-31T09:38:30.079Z,21.94
2022-08-31T09:40:58.725Z,22.01
2022-08-31T09:43:38.628Z,22.40
2022-08-31T09:46:11.772Z,22.65
2022-08-31T09:48:51.395Z,22.72
2022-08-31T09:51:28.293Z,22.92
2022-08-31T09:54:17.994Z,23.09
2022-08-31T09:56:55.257Z,23.40
2022-08-31T09:59:37.286Z,23.57
2022-08-31T10:02:09.449Z,23.73
2022-08-31T10:04:52.201Z,23.76
2022-08-31T10:07:37.755Z,23.83
2022-08-31T10:10:18.795Z,23.81
2022-08-31T10:13:03.720Z,23.62
2022-08-31T10:15:35.380Z,24.14
2022-08-31T10:18:11.984Z,24.32
2022-08-31T10:20:48.376Z,24.11
2022-08-31T10:23:22.056Z,23.99
2022-08-31T10:25:57.505Z,24.51
2022-08-31T10:28:36.670Z,24.77
2022-08-31T10:31:13.488Z,24.69
2022-08-31T10:34:16.259Z,24.59
2022-08-31T10:36:48.579Z,24.71
2022-08-31T10:39:25.794Z,24.41
2022-08-31T10:41:53.661Z,24.20
2022-08-31T10:44:32.597Z,24.08
2022-08-31T10:47:05.702Z,24.03
2022-08-31T10:49:35.421Z,23.94
2022-08-31T10:52:11.877Z,23.76
2022-08-31T10:54:48.847Z,23.93
2022-08-31T10:57:31.502Z,23.69
2022-08-31T11:00:04.077Z,23.79
2022-08-31T11:02:55.471Z,23.67
2022-08-31T11:05:35.268Z,23.60
2022-08-31T11:08:18.579Z,23.86
2022-08-31T11:10:51.948Z,24.08
2022-08-31T11:13:39.456Z,24.56
2022-08-31T11:16:32.774Z,25.01
2022-08-31T11:19:27.285Z,25.23
2022-08-31T11:22:16.635Z,25.07
2022-08-31T11:25:10.028Z,24.91
2022-08-31T11:27:44.277Z,24.92
2022-08-31T11:30:24.359Z,24.63
2022-08-31T11:32:55.384Z,24.78
2022-08-31T11:36:06.093Z,24.55
2022-08-31T11:38:48.759Z,24.83
2022-08-31T11:41:39.501Z,25.07
2022-08-31T11:44:09.032Z,25.21
2022-08-31T11:47:14.570Z,25.08
2022-08-31T11:49:48.591Z,24.75
2022-08-31T11:52:48.095Z,24.66
2022-08-31T11:55:23.475Z,24.47
2022-08-31T11:58:20.751Z,24.88
2022-08-31T12:00:54.117Z,25.13
2022-08-31T12:04:03.867Z,25.42
2022-08-31T12:07:08.440Z,26.13
2022-08-31T12:09:58.225Z,26.64
2022-08-31T12:12:38.719Z,26.26
2022-08-31T12:15:20.325Z,26.00
2022-08-31T12:18:05.517Z,25.55
2022-08-31T12:21:08.369Z,25.61
2022-08-31T12:23:39.660Z,25.91
2022-08-31T12:26:44.945Z,26.31
2022-08-31T12:29:26.688Z,25.68
2022-08-31T12:32:17.861Z,25.81
2022-08-31T12:34:50.354Z,26.41
2022-08-31T12:37:24.982Z,26.96
2022-08-31T12:40:12.127Z,27.12
2022-08-31T12:42:44.982Z,26.85
2022-08-31T12:45:16.780Z,26.63
2022-08-31T12:47:56.843Z,26.29
2022-08-31T12:50:34.474Z,26.03
2022-08-31T12:53:32.156Z,26.01
2022-08-31T12:56:06.886Z,25.86
2022-08-31T12:58:55.606Z,26.22
2022-08-31T13:01:27.551Z,26.60
2022-08-31T13:04:01.899Z,27.01
2022-08-31T13:06:32.567Z,27.28
2022-08-31T13:09:02.186Z,27.45
2022-08-31T13:11:40.686Z,27.29
2022-08-31T13:14:15.764Z,27.47
2022-08-31T13:16:46.030Z,27.27
2022-08-31T13:19:25.840Z,27.38
2022-08-31T13:21:56.970Z,27.35
2022-08-31T13:24:29.017Z,26.33
2022-08-31T13:27:12.402Z,26.99
2022-08-31T13:29:45.495Z,27.13
2022-08-31T13:32:31.697Z,27.25
2022-08-31T13:35:04.325Z,27.48
2022-08-31T13:37:38.608Z,27.44
2022-08-31T13:40:11.002Z,27.62
2022-08-31T13:42:42.882Z,27.02
2022-08-31T13:45:26.273Z,27.34
2022-08-31T13:47:58.291Z,27.71
2022-08-31T13:50:34.137Z,27.91
2022-08-31T13:53:25.803Z,27.65
2022-08-31T13:55:53.247Z,27.81
2022-08-31T13:58:28.785Z,28.05
2022-08-31T14:01:22.188Z,28.23
2022-08-31T14:03:56.330Z,28.41
2022-08-31T14:06:27.603Z,27.66
2022-08-31T14:09:03.253Z,27.81
2022-08-31T14:11:32.031Z,27.70
2022-08-31T14:14:06.119Z,28.08
2022-08-31T14:16:37.077Z,28.24
2022-08-31T14:19:05.765Z,27.74
2022-08-31T14:21:40.178Z,27.86
2022-08-31T14:24:10.527Z,27.59
2022-08-31T14:26:41.536Z,27.74
2022-08-31T14:29:12.407Z,27.29
2022-08-31T14:31:45.569Z,27.48
2022-08-31T14:34:24.255Z,27.50
2022-08-31T14:36:57.608Z,26.90
2022-08-31T14:39:30.795Z,27.02
2022-08-31T14:42:00.971Z,27.05
2022-08-31T14:44:32.424Z,26.99
2022-08-31T14:47:00.526Z,27.41
2022-08-31T14:49:31.561Z,27.30
2022-08-31T14:52:06.499Z,27.29
2022-08-31T14:54:37.592Z,27.12
2022-08-31T14:57:11.540Z,27.03
2022-08-31T14:59:43.113Z,26.95
2022-08-31T15:02:13.659Z,26.55
2022-08-31T15:04:45.836Z,26.08
2022-08-31T15:07:16.696Z,26.11
2022-08-31T15:09:46.717Z,26.13
2022-08-31T15:12:15.374Z,26.27
2022-08-31T15:14:44.824Z,26.03
2022-08-31T15:17:19.206Z,26.03
2022-08-31T15:19:50.503Z,25.95
2022-08-31T15:22:19.997Z,26.01
2022-08-31T15:24:48.071Z,25.92
2022-08-31T15:27:16.499Z,25.69
2022-08-31T15:29:46.729Z,25.60
2022-08-31T15:32:16.685Z,25.40
2022-08-31T15:34:57.807Z,25.44
2022-08-31T15:37:31.699Z,25.33
2022-08-31T15:40:01.643Z,25.08
2022-08-31T15:42:31.331Z,24.85
2022-08-31T15:45:00.201Z,24.89
2022-08-31T15:47:47.998Z,24.80
2022-08-31T15:50:19.196Z,24.65
2022-08-31T15:52:51.674Z,24.69
2022-08-31T15:55:26.373Z,24.74
2022-08-31T15:57:55.956Z,24.56
2022-08-31T16:00:25.874Z,24.54
2022-08-31T16:02:57.578Z,24.49
2022-08-31T16:05:28.306Z,24.76
2022-08-31T16:07:58.168Z,24.66
2022-08-31T16:10:28.183Z,24.68
2022-08-31T16:12:56.225Z,24.45
2022-08-31T16:15:25.120Z,24.29
2022-08-31T16:17:57.642Z,24.31
2022-08-31T16:20:27.404Z,24.17
2022-08-31T16:22:55.495Z,24.12
2022-08-31T16:25:25.286Z,23.97
2022-08-31T16:27:59.817Z,24.01
2022-08-31T16:30:28.955Z,23.91
2022-08-31T16:32:56.826Z,23.79
2022-08-31T16:35:24.754Z,23.74
2022-08-31T16:37:52.634Z,23.62
2022-08-31T16:40:22.623Z,23.48
2022-08-31T16:42:51.884Z,23.50
2022-08-31T16:45:19.966Z,23.32
2022-08-31T16:47:47.738Z,23.20
2022-08-31T16:50:16.003Z,23.28
2022-08-31T16:52:44.621Z,23.30
2022-08-31T16:55:17.072Z,23.26
2022-08-31T16:57:45.764Z,23.14
2022-08-31T17:00:15.737Z,23.11
2022-08-31T17:02:43.627Z,22.99
2022-08-31T17:05:12.890Z,23.03
2022-08-31T17:07:42.669Z,23.01
2022-08-31T17:10:11.043Z,22.99
2022-08-31T17:12:42.002Z,22.95
2022-08-31T17:15:13.829Z,22.76
2022-08-31T17:17:46.226Z,22.81
2022-08-31T17:20:16.397Z,22.77
2022-08-31T17:22:45.982Z,22.75
2022-08-31T17:25:14.360Z,22.70
2022-08-31T17:27:42.136Z,22.58
2022-08-31T17:30:13.563Z,22.52
2022-08-31T17:32:45.213Z,22.52
2022-08-31T17:35:17.395Z,22.45
2022-08-31T17:37:45.836Z,22.22
2022-08-31T17:40:14.220Z,22.17
2022-08-31T17:42:42.279Z,22.13
2022-08-31T17:45:10.825Z,22.05
2022-08-31T17:47:38.585Z,22.01
2022-08-31T17:50:08.622Z,21.90
2022-08-31T17:52:36.417Z,21.90
2022-08-31T17:55:04.778Z,21.84
2022-08-31T17:57:32.503Z,21.78
2022-08-31T18:00:00.260Z,21.73
2022-08-31T18:02:33.033Z,21.64
2022-08-31T18:05:01.314Z,21.57
2022-08-31T18:07:30.433Z,21.46
2022-08-31T18:09:58.960Z,21.41
2022-08-31T18:12:27.363Z,21.19
2022-08-31T18:14:57.974Z,21.14
2022-08-31T18:17:26.465Z,21.11
2022-08-31T18:19:54.874Z,21.06
2022-08-31T18:22:22.597Z,20.85
2022-08-31T18:24:51.620Z,20.79
2022-08-31T18:27:20.165Z,20.77
2022-08-31T18:29:47.944Z,20.67
2022-08-31T18:32:16.109Z,20.70
2022-08-31T18:34:46.169Z,20.65
2022-08-31T18:37:16.165Z,20.29
2022-08-31T18:40:08.518Z,20.31
2022-08-31T18:43:00.990Z,20.27
2022-08-31T18:45:30.699Z,20.19
2022-08-31T18:48:24.857Z,20.15
2022-08-31T18:50:48.773Z,20.01
2022-08-31T18:53:27.784Z,19.83
2022-08-31T18:55:58.042Z,19.78
2022-08-31T18:58:27.256Z,19.75
2022-08-31T19:00:57.404Z,19.66
2022-08-31T19:03:27.157Z,19.55
2022-08-31T19:05:55.110Z,19.49
2022-08-31T19:08:23.233Z,19.37
2022-08-31T19:10:51.287Z,19.31
2022-08-31T19:13:19.150Z,19.29
2022-08-31T19:15:48.485Z,19.23
2022-08-31T19:18:16.515Z,19.09
2022-08-31T19:20:44.356Z,19.00
2022-08-31T19:23:15.450Z,19.04
2022-08-31T19:25:48.322Z,19.12
2022-08-31T19:28:16.265Z,18.98
2022-08-31T19:30:47.639Z,19.04
2022-08-31T19:33:16.965Z,19.01
2022-08-31T19:35:45.387Z,18.93
2022-08-31T19:38:14.382Z,18.98
2022-08-31T19:40:42.368Z,18.97
2022-08-31T19:46:09.552Z,18.96
2022-08-31T19:48:46.170Z,18.93
2022-08-31T19:51:15.507Z,18.96
2022-08-31T19:53:44.865Z,18.86
2022-08-31T19:56:17.261Z,18.82
2022-08-31T19:58:46.942Z,18.78
2022-08-31T20:01:14.909Z,18.66
2022-08-31T20:03:45.264Z,18.49
2022-08-31T20:06:16.358Z,18.61
2022-08-31T20:08:44.842Z,18.68
2022-08-31T20:11:19.334Z,18.61
2022-08-31T20:13:49.615Z,18.49
2022-08-31T20:16:18.606Z,18.46
2022-08-31T20:18:48.771Z,18.40
2022-08-31T20:21:19.264Z,18.38
2022-08-31T20:23:48.933Z,18.40
2022-08-31T20:26:21.197Z,18.36
2022-08-31T20:28:52.613Z,18.41
2022-08-31T20:31:21.190Z,18.22
2022-08-31T20:33:50.532Z,18.25
2022-08-31T20:36:22.701Z,18.32
2022-08-31T20:38:57.112Z,18.37
2022-08-31T20:41:26.265Z,18.26
2022-08-31T20:43:55.580Z,18.18
2022-08-31T20:46:40.639Z,18.16
2022-08-31T20:49:26.222Z,18.05
2022-08-31T20:51:55.888Z,18.03
2022-08-31T20:54:24.717Z,17.98
2022-08-31T20:56:53.711Z,17.86
2022-08-31T20:59:23.613Z,17.82
2022-08-31T21:01:55.219Z,17.83
2022-08-31T21:04:24.652Z,17.83
2022-08-31T21:06:53.288Z,17.73
2022-08-31T21:09:21.512Z,17.66
2022-08-31T21:11:50.386Z,17.62
2022-08-31T21:14:20.668Z,17.60
2022-08-31T21:16:49.144Z,17.51
2022-08-31T21:19:22.203Z,17.44
2022-08-31T21:21:53.523Z,17.41
2022-08-31T21:24:22.244Z,17.40
2022-08-31T21:26:59.326Z,17.35
2022-08-31T21:29:29.205Z,17.22
2022-08-31T21:32:03.424Z,17.23
2022-08-31T21:34:32.772Z,17.23
2022-08-31T21:37:02.000Z,17.12
2022-08-31T21:39:32.487Z,17.00
2022-08-31T21:42:01.166Z,17.07
2022-08-31T21:44:29.056Z,17.05
2022-08-31T21:46:57.047Z,17.06
2022-08-31T21:49:25.327Z,17.06
2022-08-31T21:51:54.744Z,17.03
2022-08-31T21:54:27.388Z,16.97
2022-08-31T21:56:57.463Z,16.94
2022-08-31T21:59:28.277Z,16.84
2022-08-31T22:01:59.317Z,16.90
2022-08-31T22:04:28.048Z,16.79
2022-08-31T22:06:56.433Z,16.85
2022-08-31T22:09:26.904Z,16.86
2022-08-31T22:11:58.251Z,16.88
2022-08-31T22:14:29.697Z,16.85
2022-08-31T22:16:59.239Z,16.86
2022-08-31T22:19:28.582Z,16.87
2022-08-31T22:21:59.045Z,16.79
2022-08-31T22:24:30.306Z,16.85
2022-08-31T22:27:00.604Z,16.90
2022-08-31T22:29:31.332Z,16.87
2022-08-31T22:32:01.625Z,16.85
2022-08-31T22:34:29.836Z,16.97
2022-08-31T22:36:58.626Z,16.88
2022-08-31T22:39:30.138Z,16.97
2022-08-31T22:41:59.206Z,16.96
2022-08-31T22:44:29.788Z,16.94
2022-08-31T22:46:57.891Z,16.85
2022-08-31T22:49:27.171Z,16.89
2022-08-31T22:51:55.217Z,16.84
2022-08-31T22:54:23.855Z,16.92
2022-08-31T22:56:53.241Z,16.90
2022-08-31T22:59:27.062Z,16.86
2022-08-31T23:01:58.329Z,16.89
2022-08-31T23:04:29.907Z,16.71
2022-08-31T23:06:59.190Z,16.64
2022-08-31T23:09:30.993Z,16.69
2022-08-31T23:12:02.223Z,16.59
2022-08-31T23:14:32.084Z,16.56
2022-08-31T23:17:01.682Z,16.56
2022-08-31T23:19:33.022Z,16.50
2022-08-31T23:22:02.091Z,16.41
2022-08-31T23:24:32.890Z,16.49
2022-08-31T23:27:04.990Z,16.38
2022-08-31T23:29:34.578Z,16.31
2022-08-31T23:32:03.008Z,16.40
2022-08-31T23:34:31.377Z,16.34
2022-08-31T23:36:59.204Z,16.31
2022-08-31T23:39:27.702Z,16.40
2022-08-31T23:41:55.469Z,16.38
2022-08-31T23:44:24.836Z,16.24
2022-08-31T23:46:52.945Z,16.37
2022-08-31T23:49:21.663Z,16.30
2022-08-31T23:51:50.396Z,16.31
2022-08-31T23:54:19.068Z,16.31
2022-08-31T23:56:48.723Z,16.34
2022-08-31T23:59:19.957Z,16.30
